sensor_id;sensor_type;location;lat;lon;timestamp;temperature;humidity
34406;DHT22;20658;45.630;8.886;2022-08-05T00:00:27;25.90;54.10
34406;DHT22;20658;45.630;8.886;2022-08-05T00:03:00;25.90;54.20
34406;DHT22;20658;45.630;8.886;2022-08-05T00:05:34;25.90;54.50
34406;DHT22;20658;45.630;8.886;2022-08-05T00:08:09;25.90;54.60
34406;DHT22;20658;45.630;8.886;2022-08-05T00:10:42;25.90;54.80
34406;DHT22;20658;45.630;8.886;2022-08-05T00:13:16;25.80;54.80
34406;DHT22;20658;45.630;8.886;2022-08-05T00:15:49;25.80;55.00
34406;DHT22;20658;45.630;8.886;2022-08-05T00:18:22;25.80;55.20
34406;DHT22;20658;45.630;8.886;2022-08-05T00:20:56;25.80;55.40
34406;DHT22;20658;45.630;8.886;2022-08-05T00:23:31;25.70;55.60
34406;DHT22;20658;45.630;8.886;2022-08-05T00:26:04;25.70;55.70
34406;DHT22;20658;45.630;8.886;2022-08-05T00:28:38;25.70;55.80
34406;DHT22;20658;45.630;8.886;2022-08-05T00:31:12;25.70;55.90
34406;DHT22;20658;45.630;8.886;2022-08-05T00:33:46;25.60;56.00
34406;DHT22;20658;45.630;8.886;2022-08-05T00:36:19;25.60;56.20
34406;DHT22;20658;45.630;8.886;2022-08-05T00:38:54;25.60;56.30
34406;DHT22;20658;45.630;8.886;2022-08-05T00:41:29;25.60;56.30
34406;DHT22;20658;45.630;8.886;2022-08-05T00:44:04;25.50;56.60
34406;DHT22;20658;45.630;8.886;2022-08-05T00:46:37;25.50;56.50
34406;DHT22;20658;45.630;8.886;2022-08-05T00:49:11;25.50;56.60
34406;DHT22;20658;45.630;8.886;2022-08-05T00:51:44;25.50;56.80
34406;DHT22;20658;45.630;8.886;2022-08-05T00:54:19;25.40;56.50
34406;DHT22;20658;45.630;8.886;2022-08-05T00:56:53;25.40;57.00
34406;DHT22;20658;45.630;8.886;2022-08-05T00:59:26;25.40;57.00
34406;DHT22;20658;45.630;8.886;2022-08-05T01:02:00;25.40;57.00
34406;DHT22;20658;45.630;8.886;2022-08-05T01:04:33;25.40;57.20
34406;DHT22;20658;45.630;8.886;2022-08-05T01:07:06;25.40;57.10
34406;DHT22;20658;45.630;8.886;2022-08-05T01:09:41;25.40;57.30
34406;DHT22;20658;45.630;8.886;2022-08-05T01:12:16;25.30;57.50
34406;DHT22;20658;45.630;8.886;2022-08-05T01:14:58;25.30;57.50
34406;DHT22;20658;45.630;8.886;2022-08-05T01:17:38;25.30;57.80
34406;DHT22;20658;45.630;8.886;2022-08-05T01:20:15;25.30;57.90
34406;DHT22;20658;45.630;8.886;2022-08-05T01:23:00;25.20;58.10
34406;DHT22;20658;45.630;8.886;2022-08-05T01:26:16;25.20;58.30
34406;DHT22;20658;45.630;8.886;2022-08-05T01:28:57;25.10;58.30
34406;DHT22;20658;45.630;8.886;2022-08-05T01:31:33;25.10;58.50
34406;DHT22;20658;45.630;8.886;2022-08-05T01:34:10;25.10;58.50
34406;DHT22;20658;45.630;8.886;2022-08-05T01:36:42;25.10;58.60
34406;DHT22;20658;45.630;8.886;2022-08-05T01:39:18;25.10;58.90
34406;DHT22;20658;45.630;8.886;2022-08-05T01:41:50;25.00;59.10
34406;DHT22;20658;45.630;8.886;2022-08-05T01:44:27;25.00;59.10
34406;DHT22;20658;45.630;8.886;2022-08-05T01:47:01;25.00;59.00
34406;DHT22;20658;45.630;8.886;2022-08-05T01:49:36;25.00;59.10
34406;DHT22;20658;45.630;8.886;2022-08-05T01:52:07;24.90;59.30
34406;DHT22;20658;45.630;8.886;2022-08-05T01:54:45;24.90;59.20
34406;DHT22;20658;45.630;8.886;2022-08-05T01:57:25;24.90;59.50
34406;DHT22;20658;45.630;8.886;2022-08-05T02:00:03;24.90;59.50
34406;DHT22;20658;45.630;8.886;2022-08-05T02:02:42;24.80;59.70
34406;DHT22;20658;45.630;8.886;2022-08-05T02:05:21;24.80;59.60
34406;DHT22;20658;45.630;8.886;2022-08-05T02:07:56;24.80;59.90
34406;DHT22;20658;45.630;8.886;2022-08-05T02:10:35;24.80;59.80
34406;DHT22;20658;45.630;8.886;2022-08-05T02:13:13;24.80;59.90
34406;DHT22;20658;45.630;8.886;2022-08-05T02:15:54;24.80;59.90
34406;DHT22;20658;45.630;8.886;2022-08-05T02:18:36;24.80;60.00
34406;DHT22;20658;45.630;8.886;2022-08-05T02:21:16;24.80;60.00
34406;DHT22;20658;45.630;8.886;2022-08-05T02:23:55;24.80;60.00
34406;DHT22;20658;45.630;8.886;2022-08-05T02:26:45;24.80;60.10
34406;DHT22;20658;45.630;8.886;2022-08-05T02:29:22;24.80;60.10
34406;DHT22;20658;45.630;8.886;2022-08-05T02:31:58;24.80;60.00
34406;DHT22;20658;45.630;8.886;2022-08-05T02:34:34;24.80;60.10
34406;DHT22;20658;45.630;8.886;2022-08-05T02:37:09;24.80;60.30
34406;DHT22;20658;45.630;8.886;2022-08-05T02:39:45;24.70;60.40
34406;DHT22;20658;45.630;8.886;2022-08-05T02:42:20;24.70;60.60
34406;DHT22;20658;45.630;8.886;2022-08-05T02:44:54;24.70;60.80
34406;DHT22;20658;45.630;8.886;2022-08-05T02:47:32;24.70;60.90
34406;DHT22;20658;45.630;8.886;2022-08-05T02:50:03;24.70;61.00
34406;DHT22;20658;45.630;8.886;2022-08-05T02:52:35;24.70;61.20
34406;DHT22;20658;45.630;8.886;2022-08-05T02:55:08;24.60;61.40
34406;DHT22;20658;45.630;8.886;2022-08-05T02:57:43;24.60;61.80
34406;DHT22;20658;45.630;8.886;2022-08-05T03:00:17;24.60;61.90
34406;DHT22;20658;45.630;8.886;2022-08-05T03:02:53;24.60;62.00
34406;DHT22;20658;45.630;8.886;2022-08-05T03:05:29;24.60;61.90
34406;DHT22;20658;45.630;8.886;2022-08-05T03:08:03;24.60;61.90
34406;DHT22;20658;45.630;8.886;2022-08-05T03:10:37;24.60;62.00
34406;DHT22;20658;45.630;8.886;2022-08-05T03:13:12;24.50;62.30
34406;DHT22;20658;45.630;8.886;2022-08-05T03:15:47;24.50;62.10
34406;DHT22;20658;45.630;8.886;2022-08-05T03:18:17;24.50;62.20
34406;DHT22;20658;45.630;8.886;2022-08-05T03:20:50;24.40;62.30
34406;DHT22;20658;45.630;8.886;2022-08-05T03:23:24;24.50;62.50
34406;DHT22;20658;45.630;8.886;2022-08-05T03:25:57;24.50;62.50
34406;DHT22;20658;45.630;8.886;2022-08-05T03:28:31;24.50;62.70
34406;DHT22;20658;45.630;8.886;2022-08-05T03:31:05;24.50;62.50
34406;DHT22;20658;45.630;8.886;2022-08-05T03:33:41;24.40;62.60
34406;DHT22;20658;45.630;8.886;2022-08-05T03:36:14;24.40;62.70
34406;DHT22;20658;45.630;8.886;2022-08-05T03:38:48;24.40;62.50
34406;DHT22;20658;45.630;8.886;2022-08-05T03:41:21;24.40;62.70
34406;DHT22;20658;45.630;8.886;2022-08-05T03:43:55;24.30;62.70
34406;DHT22;20658;45.630;8.886;2022-08-05T03:46:28;24.30;62.80
34406;DHT22;20658;45.630;8.886;2022-08-05T03:49:03;24.30;62.70
34406;DHT22;20658;45.630;8.886;2022-08-05T03:51:41;24.40;62.70
34406;DHT22;20658;45.630;8.886;2022-08-05T03:54:22;24.40;62.90
34406;DHT22;20658;45.630;8.886;2022-08-05T03:56:57;24.40;62.70
34406;DHT22;20658;45.630;8.886;2022-08-05T03:59:34;24.40;63.20
34406;DHT22;20658;45.630;8.886;2022-08-05T04:02:07;24.50;62.80
34406;DHT22;20658;45.630;8.886;2022-08-05T04:04:46;24.40;63.00
34406;DHT22;20658;45.630;8.886;2022-08-05T04:07:21;24.30;63.10
34406;DHT22;20658;45.630;8.886;2022-08-05T04:09:55;24.30;63.50
34406;DHT22;20658;45.630;8.886;2022-08-05T04:12:30;24.30;63.60
34406;DHT22;20658;45.630;8.886;2022-08-05T04:15:01;24.20;63.60
34406;DHT22;20658;45.630;8.886;2022-08-05T04:17:34;24.20;63.70
34406;DHT22;20658;45.630;8.886;2022-08-05T04:20:18;24.20;63.80
34406;DHT22;20658;45.630;8.886;2022-08-05T04:22:52;24.20;63.70
34406;DHT22;20658;45.630;8.886;2022-08-05T04:25:25;24.20;63.80
34406;DHT22;20658;45.630;8.886;2022-08-05T04:27:58;24.20;63.90
34406;DHT22;20658;45.630;8.886;2022-08-05T04:30:32;24.20;63.70
34406;DHT22;20658;45.630;8.886;2022-08-05T04:33:01;24.20;63.60
34406;DHT22;20658;45.630;8.886;2022-08-05T04:35:35;24.30;63.70
34406;DHT22;20658;45.630;8.886;2022-08-05T04:38:09;24.10;63.50
34406;DHT22;20658;45.630;8.886;2022-08-05T04:40:43;24.30;63.70
34406;DHT22;20658;45.630;8.886;2022-08-05T04:43:16;24.30;63.50
34406;DHT22;20658;45.630;8.886;2022-08-05T04:45:50;24.30;63.50
34406;DHT22;20658;45.630;8.886;2022-08-05T04:48:23;24.30;63.30
34406;DHT22;20658;45.630;8.886;2022-08-05T04:50:58;24.40;63.10
34406;DHT22;20658;45.630;8.886;2022-08-05T04:53:31;24.40;62.70
34406;DHT22;20658;45.630;8.886;2022-08-05T04:56:06;24.50;62.80
34406;DHT22;20658;45.630;8.886;2022-08-05T04:58:40;24.50;62.80
34406;DHT22;20658;45.630;8.886;2022-08-05T05:01:13;24.60;62.60
34406;DHT22;20658;45.630;8.886;2022-08-05T05:03:47;24.60;62.70
34406;DHT22;20658;45.630;8.886;2022-08-05T05:06:21;24.70;62.70
34406;DHT22;20658;45.630;8.886;2022-08-05T05:08:55;24.70;62.80
34406;DHT22;20658;45.630;8.886;2022-08-05T05:11:28;24.70;62.80
34406;DHT22;20658;45.630;8.886;2022-08-05T05:14:02;24.80;62.70
34406;DHT22;20658;45.630;8.886;2022-08-05T05:16:35;24.90;62.50
34406;DHT22;20658;45.630;8.886;2022-08-05T05:19:08;24.90;62.30
34406;DHT22;20658;45.630;8.886;2022-08-05T05:21:43;25.00;62.20
34406;DHT22;20658;45.630;8.886;2022-08-05T05:24:16;25.10;61.90
34406;DHT22;20658;45.630;8.886;2022-08-05T05:26:52;25.10;61.40
34406;DHT22;20658;45.630;8.886;2022-08-05T05:29:25;25.20;61.20
34406;DHT22;20658;45.630;8.886;2022-08-05T05:31:59;25.30;61.00
34406;DHT22;20658;45.630;8.886;2022-08-05T05:34:32;25.40;60.40
34406;DHT22;20658;45.630;8.886;2022-08-05T05:37:08;25.70;59.50
34406;DHT22;20658;45.630;8.886;2022-08-05T05:39:36;26.00;58.40
34406;DHT22;20658;45.630;8.886;2022-08-05T05:42:09;26.30;57.10
34406;DHT22;20658;45.630;8.886;2022-08-05T05:44:43;26.60;56.30
34406;DHT22;20658;45.630;8.886;2022-08-05T05:47:16;26.80;55.20
34406;DHT22;20658;45.630;8.886;2022-08-05T05:49:50;27.00;55.20
34406;DHT22;20658;45.630;8.886;2022-08-05T05:52:25;27.20;54.50
34406;DHT22;20658;45.630;8.886;2022-08-05T05:54:58;27.50;53.40
34406;DHT22;20658;45.630;8.886;2022-08-05T05:57:32;27.70;52.80
34406;DHT22;20658;45.630;8.886;2022-08-05T06:00:08;27.90;52.10
34406;DHT22;20658;45.630;8.886;2022-08-05T06:02:44;28.10;52.10
34406;DHT22;20658;45.630;8.886;2022-08-05T06:05:18;28.30;51.10
34406;DHT22;20658;45.630;8.886;2022-08-05T06:07:53;28.50;50.90
34406;DHT22;20658;45.630;8.886;2022-08-05T06:10:26;28.70;49.90
34406;DHT22;20658;45.630;8.886;2022-08-05T06:13:00;28.90;49.20
34406;DHT22;20658;45.630;8.886;2022-08-05T06:15:33;28.90;49.10
34406;DHT22;20658;45.630;8.886;2022-08-05T06:18:07;28.80;49.50
34406;DHT22;20658;45.630;8.886;2022-08-05T06:20:40;28.90;49.00
34406;DHT22;20658;45.630;8.886;2022-08-05T06:23:15;29.20;49.00
34406;DHT22;20658;45.630;8.886;2022-08-05T06:25:48;29.40;48.20
34406;DHT22;20658;45.630;8.886;2022-08-05T06:28:22;29.40;47.50
34406;DHT22;20658;45.630;8.886;2022-08-05T06:30:56;29.70;47.30
34406;DHT22;20658;45.630;8.886;2022-08-05T06:33:29;29.80;46.60
34406;DHT22;20658;45.630;8.886;2022-08-05T06:36:03;29.90;45.90
34406;DHT22;20658;45.630;8.886;2022-08-05T06:38:38;30.20;45.80
34406;DHT22;20658;45.630;8.886;2022-08-05T06:41:12;30.40;45.80
34406;DHT22;20658;45.630;8.886;2022-08-05T06:43:46;30.80;45.30
34406;DHT22;20658;45.630;8.886;2022-08-05T06:46:19;31.20;44.50
34406;DHT22;20658;45.630;8.886;2022-08-05T06:48:53;31.50;43.70
34406;DHT22;20658;45.630;8.886;2022-08-05T06:51:26;31.70;43.10
34406;DHT22;20658;45.630;8.886;2022-08-05T06:54:02;32.10;42.40
34406;DHT22;20658;45.630;8.886;2022-08-05T06:56:36;32.40;40.60
34406;DHT22;20658;45.630;8.886;2022-08-05T06:59:10;32.30;38.40
34406;DHT22;20658;45.630;8.886;2022-08-05T07:01:45;32.70;37.30
34406;DHT22;20658;45.630;8.886;2022-08-05T07:04:18;32.80;36.90
34406;DHT22;20658;45.630;8.886;2022-08-05T07:06:52;33.00;37.70
34406;DHT22;20658;45.630;8.886;2022-08-05T07:09:26;33.30;36.70
34406;DHT22;20658;45.630;8.886;2022-08-05T07:12:00;33.20;36.30
34406;DHT22;20658;45.630;8.886;2022-08-05T07:14:34;33.30;36.30
34406;DHT22;20658;45.630;8.886;2022-08-05T07:17:33;33.50;35.00
34406;DHT22;20658;45.630;8.886;2022-08-05T07:20:07;33.40;35.20
34406;DHT22;20658;45.630;8.886;2022-08-05T07:22:41;33.40;35.80
34406;DHT22;20658;45.630;8.886;2022-08-05T07:25:16;33.50;36.30
34406;DHT22;20658;45.630;8.886;2022-08-05T07:27:50;33.80;36.20
34406;DHT22;20658;45.630;8.886;2022-08-05T07:30:25;34.00;36.30
34406;DHT22;20658;45.630;8.886;2022-08-05T07:32:58;33.80;35.70
34406;DHT22;20658;45.630;8.886;2022-08-05T07:35:32;33.90;35.60
34406;DHT22;20658;45.630;8.886;2022-08-05T07:38:06;34.10;35.70
34406;DHT22;20658;45.630;8.886;2022-08-05T07:40:40;34.00;35.60
34406;DHT22;20658;45.630;8.886;2022-08-05T07:43:14;34.10;35.50
34406;DHT22;20658;45.630;8.886;2022-08-05T07:45:48;34.00;35.40
34406;DHT22;20658;45.630;8.886;2022-08-05T07:48:21;34.00;34.80
34406;DHT22;20658;45.630;8.886;2022-08-05T07:50:55;34.00;34.80
34406;DHT22;20658;45.630;8.886;2022-08-05T07:53:28;34.20;34.80
34406;DHT22;20658;45.630;8.886;2022-08-05T07:56:03;34.20;34.80
34406;DHT22;20658;45.630;8.886;2022-08-05T07:58:37;34.20;35.00
34406;DHT22;20658;45.630;8.886;2022-08-05T08:01:10;34.40;34.60
34406;DHT22;20658;45.630;8.886;2022-08-05T08:03:44;34.50;34.10
34406;DHT22;20658;45.630;8.886;2022-08-05T08:06:17;34.50;33.50
34406;DHT22;20658;45.630;8.886;2022-08-05T08:08:51;34.20;34.30
34406;DHT22;20658;45.630;8.886;2022-08-05T08:11:26;34.40;34.20
34406;DHT22;20658;45.630;8.886;2022-08-05T08:13:59;34.40;34.10
34406;DHT22;20658;45.630;8.886;2022-08-05T08:16:32;34.60;33.80
34406;DHT22;20658;45.630;8.886;2022-08-05T08:19:06;34.50;33.50
34406;DHT22;20658;45.630;8.886;2022-08-05T08:21:40;34.40;33.60
34406;DHT22;20658;45.630;8.886;2022-08-05T08:24:16;34.30;34.00
34406;DHT22;20658;45.630;8.886;2022-08-05T08:26:51;34.60;33.40
34406;DHT22;20658;45.630;8.886;2022-08-05T08:29:25;34.80;32.90
34406;DHT22;20658;45.630;8.886;2022-08-05T08:31:58;34.50;33.30
34406;DHT22;20658;45.630;8.886;2022-08-05T08:34:32;34.70;33.40
34406;DHT22;20658;45.630;8.886;2022-08-05T08:37:05;34.90;33.30
34406;DHT22;20658;45.630;8.886;2022-08-05T08:39:39;35.10;33.50
34406;DHT22;20658;45.630;8.886;2022-08-05T08:42:14;35.10;33.00
34406;DHT22;20658;45.630;8.886;2022-08-05T08:44:49;35.20;33.00
34406;DHT22;20658;45.630;8.886;2022-08-05T08:47:26;35.20;32.60
34406;DHT22;20658;45.630;8.886;2022-08-05T08:50:02;35.20;32.70
34406;DHT22;20658;45.630;8.886;2022-08-05T08:52:37;35.00;33.00
34406;DHT22;20658;45.630;8.886;2022-08-05T08:55:12;35.10;33.20
34406;DHT22;20658;45.630;8.886;2022-08-05T08:57:47;35.40;32.80
34406;DHT22;20658;45.630;8.886;2022-08-05T09:00:21;35.60;32.20
34406;DHT22;20658;45.630;8.886;2022-08-05T09:02:55;35.60;32.20
34406;DHT22;20658;45.630;8.886;2022-08-05T09:05:29;35.60;32.10
34406;DHT22;20658;45.630;8.886;2022-08-05T09:08:03;35.70;32.10
34406;DHT22;20658;45.630;8.886;2022-08-05T09:10:39;35.80;32.00
34406;DHT22;20658;45.630;8.886;2022-08-05T09:13:16;36.00;32.00
34406;DHT22;20658;45.630;8.886;2022-08-05T09:15:51;36.00;32.00
34406;DHT22;20658;45.630;8.886;2022-08-05T09:18:24;36.10;31.80
34406;DHT22;20658;45.630;8.886;2022-08-05T09:20:58;36.30;31.30
34406;DHT22;20658;45.630;8.886;2022-08-05T09:23:31;36.40;31.00
34406;DHT22;20658;45.630;8.886;2022-08-05T09:26:06;36.30;31.00
34406;DHT22;20658;45.630;8.886;2022-08-05T09:28:42;36.20;31.30
34406;DHT22;20658;45.630;8.886;2022-08-05T09:31:16;36.30;31.40
34406;DHT22;20658;45.630;8.886;2022-08-05T09:33:51;36.00;31.40
34406;DHT22;20658;45.630;8.886;2022-08-05T09:36:38;36.10;31.40
34406;DHT22;20658;45.630;8.886;2022-08-05T09:39:13;36.00;31.50
34406;DHT22;20658;45.630;8.886;2022-08-05T09:41:56;36.10;31.40
34406;DHT22;20658;45.630;8.886;2022-08-05T09:44:37;36.00;31.50
34406;DHT22;20658;45.630;8.886;2022-08-05T09:47:14;36.20;31.30
34406;DHT22;20658;45.630;8.886;2022-08-05T09:49:50;36.60;31.10
34406;DHT22;20658;45.630;8.886;2022-08-05T09:52:23;36.90;31.00
34406;DHT22;20658;45.630;8.886;2022-08-05T09:55:00;37.00;30.80
34406;DHT22;20658;45.630;8.886;2022-08-05T09:57:36;37.10;31.00
34406;DHT22;20658;45.630;8.886;2022-08-05T10:00:14;37.00;30.80
34406;DHT22;20658;45.630;8.886;2022-08-05T10:02:51;37.00;31.10
34406;DHT22;20658;45.630;8.886;2022-08-05T10:05:27;37.20;31.00
34406;DHT22;20658;45.630;8.886;2022-08-05T10:08:02;37.30;30.30
34406;DHT22;20658;45.630;8.886;2022-08-05T10:10:45;37.40;30.30
34406;DHT22;20658;45.630;8.886;2022-08-05T10:13:28;37.00;30.70
34406;DHT22;20658;45.630;8.886;2022-08-05T10:15:59;37.10;31.20
34406;DHT22;20658;45.630;8.886;2022-08-05T10:18:33;37.30;31.00
34406;DHT22;20658;45.630;8.886;2022-08-05T10:21:07;37.50;31.10
34406;DHT22;20658;45.630;8.886;2022-08-05T10:23:40;37.40;30.50
34406;DHT22;20658;45.630;8.886;2022-08-05T10:26:14;37.60;30.50
34406;DHT22;20658;45.630;8.886;2022-08-05T10:28:47;37.70;30.50
34406;DHT22;20658;45.630;8.886;2022-08-05T10:31:23;37.60;30.40
34406;DHT22;20658;45.630;8.886;2022-08-05T10:33:57;37.90;30.20
34406;DHT22;20658;45.630;8.886;2022-08-05T10:36:34;37.90;29.80
34406;DHT22;20658;45.630;8.886;2022-08-05T10:39:05;38.00;30.10
34406;DHT22;20658;45.630;8.886;2022-08-05T10:41:40;38.00;30.10
34406;DHT22;20658;45.630;8.886;2022-08-05T10:44:23;38.00;30.20
34406;DHT22;20658;45.630;8.886;2022-08-05T10:46:58;37.70;29.70
34406;DHT22;20658;45.630;8.886;2022-08-05T10:49:31;37.70;29.90
34406;DHT22;20658;45.630;8.886;2022-08-05T10:52:04;37.40;30.50
34406;DHT22;20658;45.630;8.886;2022-08-05T10:54:45;37.50;29.70
34406;DHT22;20658;45.630;8.886;2022-08-05T10:57:27;37.10;30.70
34406;DHT22;20658;45.630;8.886;2022-08-05T11:00:10;37.30;30.60
34406;DHT22;20658;45.630;8.886;2022-08-05T11:03:11;37.30;30.40
34406;DHT22;20658;45.630;8.886;2022-08-05T11:09:12;36.80;30.20
34406;DHT22;20658;45.630;8.886;2022-08-05T11:11:50;37.10;30.50
34406;DHT22;20658;45.630;8.886;2022-08-05T11:14:26;36.80;30.20
34406;DHT22;20658;45.630;8.886;2022-08-05T11:17:28;37.10;30.60
34406;DHT22;20658;45.630;8.886;2022-08-05T11:20:29;37.30;30.60
34406;DHT22;20658;45.630;8.886;2022-08-05T11:23:35;37.70;29.60
34406;DHT22;20658;45.630;8.886;2022-08-05T11:26:20;37.20;30.30
34406;DHT22;20658;45.630;8.886;2022-08-05T11:28:55;37.30;30.30
34406;DHT22;20658;45.630;8.886;2022-08-05T11:31:30;37.30;30.10
34406;DHT22;20658;45.630;8.886;2022-08-05T11:34:05;37.70;29.60
34406;DHT22;20658;45.630;8.886;2022-08-05T11:36:51;37.70;29.90
34406;DHT22;20658;45.630;8.886;2022-08-05T11:39:46;38.00;29.60
34406;DHT22;20658;45.630;8.886;2022-08-05T11:42:25;38.20;28.90
34406;DHT22;20658;45.630;8.886;2022-08-05T11:45:01;38.00;29.40
34406;DHT22;20658;45.630;8.886;2022-08-05T11:47:36;38.10;29.20
34406;DHT22;20658;45.630;8.886;2022-08-05T11:50:10;38.30;28.60
34406;DHT22;20658;45.630;8.886;2022-08-05T11:52:45;38.30;28.20
34406;DHT22;20658;45.630;8.886;2022-08-05T11:55:18;38.50;28.30
34406;DHT22;20658;45.630;8.886;2022-08-05T11:57:52;38.80;27.80
34406;DHT22;20658;45.630;8.886;2022-08-05T12:00:26;38.90;26.80
34406;DHT22;20658;45.630;8.886;2022-08-05T12:03:14;38.90;26.70
34406;DHT22;20658;45.630;8.886;2022-08-05T12:05:48;38.50;27.90
34406;DHT22;20658;45.630;8.886;2022-08-05T12:08:23;39.00;27.70
34406;DHT22;20658;45.630;8.886;2022-08-05T12:11:05;39.00;27.50
34406;DHT22;20658;45.630;8.886;2022-08-05T12:13:53;39.20;27.40
34406;DHT22;20658;45.630;8.886;2022-08-05T12:16:30;39.30;26.60
34406;DHT22;20658;45.630;8.886;2022-08-05T12:19:06;39.30;26.40
34406;DHT22;20658;45.630;8.886;2022-08-05T12:21:42;39.00;26.90
34406;DHT22;20658;45.630;8.886;2022-08-05T12:24:19;38.70;27.20
34406;DHT22;20658;45.630;8.886;2022-08-05T12:26:53;39.10;27.50
34406;DHT22;20658;45.630;8.886;2022-08-05T12:29:31;39.60;26.80
34406;DHT22;20658;45.630;8.886;2022-08-05T12:32:05;39.90;26.30
34406;DHT22;20658;45.630;8.886;2022-08-05T12:34:39;40.00;26.50
34406;DHT22;20658;45.630;8.886;2022-08-05T12:37:15;40.00;26.60
34406;DHT22;20658;45.630;8.886;2022-08-05T12:39:50;39.90;26.70
34406;DHT22;20658;45.630;8.886;2022-08-05T12:42:28;39.80;26.50
34406;DHT22;20658;45.630;8.886;2022-08-05T12:45:05;39.90;26.50
34406;DHT22;20658;45.630;8.886;2022-08-05T12:47:37;39.90;26.30
34406;DHT22;20658;45.630;8.886;2022-08-05T12:50:14;39.80;26.50
34406;DHT22;20658;45.630;8.886;2022-08-05T12:52:55;39.90;26.70
34406;DHT22;20658;45.630;8.886;2022-08-05T12:55:31;40.10;27.20
34406;DHT22;20658;45.630;8.886;2022-08-05T12:58:05;39.90;26.40
34406;DHT22;20658;45.630;8.886;2022-08-05T13:00:42;39.60;27.40
34406;DHT22;20658;45.630;8.886;2022-08-05T13:03:11;39.60;27.00
34406;DHT22;20658;45.630;8.886;2022-08-05T13:05:46;39.80;27.00
34406;DHT22;20658;45.630;8.886;2022-08-05T13:08:20;39.80;27.00
34406;DHT22;20658;45.630;8.886;2022-08-05T13:10:59;39.90;26.80
34406;DHT22;20658;45.630;8.886;2022-08-05T13:13:37;39.70;27.20
34406;DHT22;20658;45.630;8.886;2022-08-05T13:16:12;40.00;27.90
34406;DHT22;20658;45.630;8.886;2022-08-05T13:18:52;40.00;27.80
34406;DHT22;20658;45.630;8.886;2022-08-05T13:21:27;39.80;26.80
34406;DHT22;20658;45.630;8.886;2022-08-05T13:24:00;39.80;26.20
34406;DHT22;20658;45.630;8.886;2022-08-05T13:26:35;40.00;26.80
34406;DHT22;20658;45.630;8.886;2022-08-05T13:29:09;40.10;26.00
34406;DHT22;20658;45.630;8.886;2022-08-05T13:31:42;40.20;26.10
34406;DHT22;20658;45.630;8.886;2022-08-05T13:34:16;40.20;26.10
34406;DHT22;20658;45.630;8.886;2022-08-05T13:36:50;40.00;26.10
34406;DHT22;20658;45.630;8.886;2022-08-05T13:39:23;39.90;25.70
34406;DHT22;20658;45.630;8.886;2022-08-05T13:41:58;39.60;26.40
34406;DHT22;20658;45.630;8.886;2022-08-05T13:44:32;39.60;26.60
34406;DHT22;20658;45.630;8.886;2022-08-05T13:47:05;39.60;26.50
34406;DHT22;20658;45.630;8.886;2022-08-05T13:49:38;39.60;26.70
34406;DHT22;20658;45.630;8.886;2022-08-05T13:52:13;39.60;26.70
34406;DHT22;20658;45.630;8.886;2022-08-05T13:54:48;39.70;26.80
34406;DHT22;20658;45.630;8.886;2022-08-05T13:57:24;39.60;27.10
34406;DHT22;20658;45.630;8.886;2022-08-05T13:59:57;39.90;26.60
34406;DHT22;20658;45.630;8.886;2022-08-05T14:02:26;39.80;27.00
34406;DHT22;20658;45.630;8.886;2022-08-05T14:04:59;40.00;27.30
34406;DHT22;20658;45.630;8.886;2022-08-05T14:07:46;40.10;27.20
34406;DHT22;20658;45.630;8.886;2022-08-05T14:10:20;40.30;26.60
34406;DHT22;20658;45.630;8.886;2022-08-05T14:12:56;40.30;26.10
34406;DHT22;20658;45.630;8.886;2022-08-05T14:15:30;40.40;26.10
34406;DHT22;20658;45.630;8.886;2022-08-05T14:18:06;40.40;26.10
34406;DHT22;20658;45.630;8.886;2022-08-05T14:20:39;40.50;25.80
34406;DHT22;20658;45.630;8.886;2022-08-05T14:23:13;40.30;25.90
34406;DHT22;20658;45.630;8.886;2022-08-05T14:25:46;40.30;25.90
34406;DHT22;20658;45.630;8.886;2022-08-05T14:28:16;40.10;26.10
34406;DHT22;20658;45.630;8.886;2022-08-05T14:30:50;40.20;25.80
34406;DHT22;20658;45.630;8.886;2022-08-05T14:33:23;40.30;25.90
34406;DHT22;20658;45.630;8.886;2022-08-05T14:35:57;40.30;25.90
34406;DHT22;20658;45.630;8.886;2022-08-05T14:38:30;40.50;25.70
34406;DHT22;20658;45.630;8.886;2022-08-05T14:41:04;40.60;26.10
34406;DHT22;20658;45.630;8.886;2022-08-05T14:43:39;40.40;26.40
34406;DHT22;20658;45.630;8.886;2022-08-05T14:46:12;40.50;27.00
34406;DHT22;20658;45.630;8.886;2022-08-05T14:48:46;40.70;26.50
34406;DHT22;20658;45.630;8.886;2022-08-05T14:51:19;40.30;26.10
34406;DHT22;20658;45.630;8.886;2022-08-05T14:53:53;40.30;26.10
34406;DHT22;20658;45.630;8.886;2022-08-05T14:56:26;40.30;25.80
34406;DHT22;20658;45.630;8.886;2022-08-05T14:59:01;39.70;25.60
34406;DHT22;20658;45.630;8.886;2022-08-05T15:01:35;39.90;25.90
34406;DHT22;20658;45.630;8.886;2022-08-05T15:04:08;39.90;25.80
34406;DHT22;20658;45.630;8.886;2022-08-05T15:06:42;39.90;26.00
34406;DHT22;20658;45.630;8.886;2022-08-05T15:09:16;39.40;26.40
34406;DHT22;20658;45.630;8.886;2022-08-05T15:11:50;39.40;26.80
34406;DHT22;20658;45.630;8.886;2022-08-05T15:14:25;39.60;26.70
34406;DHT22;20658;45.630;8.886;2022-08-05T15:16:58;40.00;26.70
34406;DHT22;20658;45.630;8.886;2022-08-05T15:19:32;40.30;26.10
34406;DHT22;20658;45.630;8.886;2022-08-05T15:22:05;40.20;26.10
34406;DHT22;20658;45.630;8.886;2022-08-05T15:24:39;40.10;26.20
34406;DHT22;20658;45.630;8.886;2022-08-05T15:27:13;39.90;25.60
34406;DHT22;20658;45.630;8.886;2022-08-05T15:29:48;39.60;26.50
34406;DHT22;20658;45.630;8.886;2022-08-05T15:32:21;39.80;26.20
34406;DHT22;20658;45.630;8.886;2022-08-05T15:35:14;40.00;26.40
34406;DHT22;20658;45.630;8.886;2022-08-05T15:37:50;40.00;26.30
34406;DHT22;20658;45.630;8.886;2022-08-05T15:40:23;40.10;26.10
34406;DHT22;20658;45.630;8.886;2022-08-05T15:42:57;40.10;26.10
34406;DHT22;20658;45.630;8.886;2022-08-05T15:45:31;40.20;25.50
34406;DHT22;20658;45.630;8.886;2022-08-05T15:48:05;40.30;26.00
34406;DHT22;20658;45.630;8.886;2022-08-05T15:50:38;40.40;25.50
34406;DHT22;20658;45.630;8.886;2022-08-05T15:53:12;40.30;25.80
34406;DHT22;20658;45.630;8.886;2022-08-05T15:55:45;39.50;26.00
34406;DHT22;20658;45.630;8.886;2022-08-05T15:58:19;39.10;26.70
34406;DHT22;20658;45.630;8.886;2022-08-05T16:00:53;38.60;27.10
34406;DHT22;20658;45.630;8.886;2022-08-05T16:03:27;38.30;27.50
34406;DHT22;20658;45.630;8.886;2022-08-05T16:06:00;38.30;27.50
34406;DHT22;20658;45.630;8.886;2022-08-05T16:08:34;38.00;28.00
34406;DHT22;20658;45.630;8.886;2022-08-05T16:11:08;37.50;28.10
34406;DHT22;20658;45.630;8.886;2022-08-05T16:13:42;37.50;28.40
34406;DHT22;20658;45.630;8.886;2022-08-05T16:16:17;36.60;29.10
34406;DHT22;20658;45.630;8.886;2022-08-05T16:18:51;36.20;29.50
34406;DHT22;20658;45.630;8.886;2022-08-05T16:21:24;36.10;28.70
34406;DHT22;20658;45.630;8.886;2022-08-05T16:23:58;36.10;28.90